createdAt,value
2023-05-24T00:01:59.902Z,13.88
2023-05-24T00:04:30.329Z,11.73
2023-05-24T00:06:58.291Z,14.45
2023-05-24T00:09:24.910Z,11.60
2023-05-24T00:11:51.465Z,21.33
2023-05-24T00:14:17.999Z,15.32
2023-05-24T00:16:46.500Z,14.82
2023-05-24T00:19:18.676Z,14.68
2023-05-24T00:21:45.979Z,13.50
2023-05-24T00:24:12.742Z,16.20
2023-05-24T00:26:39.349Z,24.00
2023-05-24T00:29:06.120Z,11.25
2023-05-24T00:31:32.786Z,18.85
2023-05-24T00:33:59.336Z,13.13
2023-05-24T00:36:25.864Z,9.30
2023-05-24T00:38:53.723Z,13.68
2023-05-24T00:41:20.393Z,17.55
2023-05-24T00:43:46.936Z,9.50
2023-05-24T00:46:18.610Z,17.48
2023-05-24T00:48:45.535Z,13.73
2023-05-24T00:51:12.572Z,17.70
2023-05-24T00:53:40.101Z,10.70
2023-05-24T00:56:07.573Z,25.83
2023-05-24T00:58:34.376Z,14.07
2023-05-24T01:01:02.268Z,15.18
2023-05-24T01:03:29.601Z,17.38
2023-05-24T01:06:03.774Z,9.68
2023-05-24T01:08:39.369Z,16.60
2023-05-24T01:11:24.785Z,15.18
2023-05-24T01:14:07.285Z,16.52
2023-05-24T01:16:42.000Z,13.40
2023-05-24T01:19:19.336Z,22.25
2023-05-24T01:21:48.701Z,20.13
2023-05-24T01:24:15.708Z,16.15
2023-05-24T01:27:01.222Z,15.88
2023-05-24T01:29:29.524Z,12.98
2023-05-24T01:31:56.941Z,20.40
2023-05-24T01:34:25.432Z,16.25
2023-05-24T01:36:52.206Z,17.50
2023-05-24T01:39:19.511Z,14.73
2023-05-24T01:42:04.896Z,21.97
2023-05-24T01:44:44.912Z,14.25
2023-05-24T01:47:43.869Z,14.23
2023-05-24T01:50:30.665Z,12.27
2023-05-24T01:53:02.314Z,16.40
2023-05-24T01:55:30.265Z,20.88
2023-05-24T01:57:59.167Z,20.35
2023-05-24T02:00:26.817Z,20.27
2023-05-24T02:02:53.609Z,17.73
2023-05-24T02:05:21.580Z,25.20
2023-05-24T02:07:48.253Z,14.30
2023-05-24T02:10:14.783Z,21.75
2023-05-24T02:12:41.330Z,21.33
2023-05-24T02:15:08.176Z,18.15
2023-05-24T02:17:35.905Z,11.20
2023-05-24T02:20:04.006Z,15.00
2023-05-24T02:22:30.603Z,18.45
2023-05-24T02:24:57.928Z,19.70
2023-05-24T02:27:24.447Z,24.63
2023-05-24T02:29:51.000Z,11.32
2023-05-24T02:32:17.680Z,21.20
2023-05-24T02:34:44.403Z,19.25
2023-05-24T02:37:14.861Z,15.10
2023-05-24T02:39:42.215Z,19.52
2023-05-24T02:42:09.153Z,15.93
2023-05-24T02:44:35.739Z,15.75
2023-05-24T02:47:02.314Z,19.67
2023-05-24T02:49:28.912Z,17.30
2023-05-24T02:51:55.596Z,17.60
2023-05-24T02:54:22.094Z,19.30
2023-05-24T02:56:48.706Z,21.90
2023-05-24T02:59:15.303Z,15.23
2023-05-24T03:01:41.996Z,19.02
2023-05-24T03:04:08.750Z,16.98
2023-05-24T03:06:36.237Z,13.23
2023-05-24T03:09:02.812Z,17.25
2023-05-24T03:11:29.401Z,16.23
2023-05-24T03:13:55.928Z,18.48
2023-05-24T03:16:22.492Z,15.90
2023-05-24T03:18:51.124Z,13.48
2023-05-24T03:21:20.709Z,17.58
2023-05-24T03:23:47.572Z,19.25
2023-05-24T03:26:14.119Z,27.15
2023-05-24T03:28:40.877Z,16.35
2023-05-24T03:31:07.761Z,17.77
2023-05-24T03:33:34.350Z,17.00
2023-05-24T03:36:00.973Z,16.83
2023-05-24T03:38:27.538Z,17.48
2023-05-24T03:40:54.159Z,17.38
2023-05-24T03:43:21.284Z,14.38
2023-05-24T03:45:48.223Z,19.55
2023-05-24T03:48:14.918Z,15.77
2023-05-24T03:50:41.746Z,18.33
2023-05-24T03:53:08.531Z,18.30
2023-05-24T03:55:35.099Z,17.40
2023-05-24T03:58:01.714Z,19.80
2023-05-24T04:00:28.243Z,19.10
2023-05-24T04:02:56.121Z,17.80
2023-05-24T04:05:27.147Z,16.67
2023-05-24T04:07:53.971Z,14.02
2023-05-24T04:10:20.558Z,18.33
2023-05-24T04:12:47.197Z,19.38
2023-05-24T04:15:15.261Z,19.45
2023-05-24T04:17:42.735Z,16.73
2023-05-24T04:20:10.069Z,14.07
2023-05-24T04:22:36.710Z,17.87
2023-05-24T04:25:04.122Z,21.73
2023-05-24T04:27:31.360Z,18.35
2023-05-24T04:29:58.029Z,16.67
2023-05-24T04:32:24.758Z,19.13
2023-05-24T04:34:52.568Z,25.15
2023-05-24T04:37:19.162Z,21.95
2023-05-24T04:39:45.783Z,17.75
2023-05-24T04:42:13.032Z,15.52
2023-05-24T04:44:42.922Z,19.03
2023-05-24T04:47:10.807Z,20.25
2023-05-24T04:49:37.813Z,22.27
2023-05-24T04:52:04.707Z,28.35
2023-05-24T04:54:31.314Z,52.03
2023-05-24T04:56:57.909Z,54.38
2023-05-24T04:59:24.733Z,67.22
2023-05-24T05:01:51.316Z,62.10
2023-05-24T05:04:17.904Z,23.42
2023-05-24T05:06:44.961Z,41.60
2023-05-24T05:09:13.966Z,38.55
2023-05-24T05:11:40.624Z,25.45
2023-05-24T05:14:09.702Z,23.20
2023-05-24T05:16:37.046Z,19.85
2023-05-24T05:19:06.730Z,22.73
2023-05-24T05:21:33.657Z,26.48
2023-05-24T05:24:00.560Z,14.88
2023-05-24T05:26:27.787Z,17.60
2023-05-24T05:28:57.293Z,16.70
2023-05-24T05:31:24.217Z,23.83
2023-05-24T05:33:51.115Z,14.15
2023-05-24T05:36:17.910Z,15.32
2023-05-24T05:38:44.480Z,15.35
2023-05-24T05:41:11.165Z,12.80
2023-05-24T05:43:38.622Z,16.00
2023-05-24T05:46:05.557Z,16.90
2023-05-24T05:48:32.162Z,12.70
2023-05-24T05:50:58.710Z,14.48
2023-05-24T05:53:25.333Z,17.80
2023-05-24T05:55:52.103Z,17.70
2023-05-24T05:58:18.640Z,18.17
2023-05-24T06:00:45.232Z,13.57
2023-05-24T06:03:11.839Z,15.27
2023-05-24T06:05:38.629Z,16.17
2023-05-24T06:08:05.266Z,11.48
2023-05-24T06:10:31.859Z,14.75
2023-05-24T06:12:58.491Z,14.82
2023-05-24T06:15:25.045Z,13.85
2023-05-24T06:17:52.778Z,13.68
2023-05-24T06:20:19.625Z,21.55
2023-05-24T06:22:46.491Z,13.73
2023-05-24T06:25:19.310Z,12.15
2023-05-24T06:27:45.952Z,18.80
2023-05-24T06:30:13.638Z,20.83
2023-05-24T06:32:40.588Z,13.25
2023-05-24T06:35:08.072Z,14.63
2023-05-24T06:37:34.752Z,20.75
2023-05-24T06:40:01.520Z,16.23
2023-05-24T06:42:28.080Z,18.05
2023-05-24T06:44:54.687Z,14.30
2023-05-24T06:47:22.020Z,20.73
2023-05-24T06:49:50.091Z,21.55
2023-05-24T06:52:16.739Z,20.23
2023-05-24T06:54:43.425Z,16.92
2023-05-24T06:57:10.160Z,17.08
2023-05-24T06:59:36.740Z,14.05
2023-05-24T07:02:04.205Z,14.38
2023-05-24T07:04:31.268Z,16.02
2023-05-24T07:06:58.486Z,12.75
2023-05-24T07:09:25.227Z,12.10
2023-05-24T07:11:52.585Z,15.57
2023-05-24T07:14:19.083Z,12.98
2023-05-24T07:16:45.689Z,11.73
2023-05-24T07:19:13.752Z,11.43
2023-05-24T07:24:07.117Z,12.27
2023-05-24T07:26:33.707Z,15.55
2023-05-24T07:29:00.274Z,13.35
2023-05-24T07:31:27.472Z,9.90
2023-05-24T07:33:53.999Z,9.47
2023-05-24T07:36:21.474Z,11.70
2023-05-24T07:38:48.015Z,7.65
2023-05-24T07:41:14.560Z,10.70
2023-05-24T07:43:41.160Z,10.68
2023-05-24T07:46:08.315Z,14.27
2023-05-24T07:48:34.905Z,8.63
2023-05-24T07:51:01.460Z,12.07
2023-05-24T07:53:28.015Z,10.00
2023-05-24T07:55:55.224Z,10.73
2023-05-24T07:58:21.809Z,11.23
2023-05-24T08:00:48.570Z,9.45
2023-05-24T08:03:15.888Z,8.50
2023-05-24T08:05:42.743Z,7.88
2023-05-24T08:08:09.786Z,7.45
2023-05-24T08:10:36.783Z,8.50
2023-05-24T08:13:04.403Z,8.75
2023-05-24T08:15:31.017Z,10.65
2023-05-24T08:17:57.561Z,8.70
2023-05-24T08:20:24.243Z,9.50
2023-05-24T08:22:50.805Z,12.05
2023-05-24T08:25:17.413Z,10.05
2023-05-24T08:27:43.980Z,5.40
2023-05-24T08:30:11.279Z,8.95
2023-05-24T08:32:38.514Z,7.55
2023-05-24T08:35:19.280Z,6.43
2023-05-24T08:37:48.303Z,8.40
2023-05-24T08:40:14.952Z,7.13
2023-05-24T08:42:41.854Z,7.55
2023-05-24T08:45:09.701Z,6.75
2023-05-24T08:47:36.820Z,11.40
2023-05-24T08:50:03.738Z,7.00
2023-05-24T08:52:31.694Z,5.85
2023-05-24T08:57:26.284Z,8.98
2023-05-24T08:59:56.077Z,9.00
2023-05-24T09:02:23.379Z,17.48
2023-05-24T09:04:52.286Z,7.68
2023-05-24T09:07:19.748Z,12.20
2023-05-24T09:09:47.872Z,8.95
2023-05-24T09:12:25.004Z,8.13
2023-05-24T09:14:59.820Z,9.20
2023-05-24T09:17:27.067Z,11.27
2023-05-24T09:19:54.004Z,7.10
2023-05-24T09:22:26.003Z,16.83
2023-05-24T09:24:53.395Z,9.45
2023-05-24T09:27:23.046Z,9.93
2023-05-24T09:29:50.344Z,8.10
2023-05-24T09:32:16.908Z,10.43
2023-05-24T09:34:44.392Z,12.55
2023-05-24T09:37:14.033Z,10.60
2023-05-24T09:39:42.217Z,10.15
2023-05-24T09:42:09.068Z,5.60
2023-05-24T09:44:36.299Z,9.43
2023-05-24T09:47:05.208Z,10.47
2023-05-24T09:49:32.013Z,14.70
2023-05-24T09:51:58.665Z,11.18
2023-05-24T09:54:28.036Z,7.88
2023-05-24T09:56:54.737Z,6.55
2023-05-24T09:59:21.602Z,9.45
2023-05-24T10:01:53.889Z,9.15
2023-05-24T10:04:32.474Z,11.68
2023-05-24T10:06:59.826Z,9.30
2023-05-24T10:09:33.785Z,6.68
2023-05-24T10:12:06.846Z,6.85
2023-05-24T10:14:37.067Z,16.92
2023-05-24T10:17:05.663Z,10.07
2023-05-24T10:19:33.045Z,9.38
2023-05-24T10:21:59.988Z,7.22
2023-05-24T10:24:28.667Z,8.35
2023-05-24T10:26:55.762Z,5.15
2023-05-24T10:29:42.678Z,6.57
2023-05-24T10:32:09.367Z,6.13
2023-05-24T10:34:36.605Z,7.50
2023-05-24T10:37:03.384Z,8.73
2023-05-24T10:39:33.093Z,5.10
2023-05-24T10:42:02.984Z,6.85
2023-05-24T10:44:30.633Z,6.90
2023-05-24T10:47:10.130Z,9.85
2023-05-24T10:49:37.390Z,11.15
2023-05-24T10:52:08.190Z,7.20
2023-05-24T10:54:36.334Z,8.15
2023-05-24T10:57:04.760Z,17.48
2023-05-24T10:59:35.098Z,6.68
2023-05-24T11:02:02.016Z,4.75
2023-05-24T11:04:32.570Z,6.00
2023-05-24T11:07:03.667Z,6.60
2023-05-24T11:09:30.399Z,6.55
2023-05-24T11:11:57.686Z,7.53
2023-05-24T11:14:27.523Z,7.43
2023-05-24T11:16:54.318Z,5.30
2023-05-24T11:19:25.022Z,6.43
2023-05-24T11:21:53.785Z,6.15
2023-05-24T11:24:22.008Z,7.68
2023-05-24T11:26:50.099Z,7.93
2023-05-24T11:29:22.769Z,11.60
2023-05-24T11:32:04.985Z,5.28
2023-05-24T11:34:32.288Z,7.32
2023-05-24T11:36:59.455Z,9.52
2023-05-24T11:39:29.864Z,8.03
2023-05-24T11:41:57.566Z,5.43
2023-05-24T11:44:24.178Z,4.15
2023-05-24T11:46:56.750Z,6.32
2023-05-24T11:49:23.310Z,7.55
2023-05-24T11:51:49.884Z,8.07
2023-05-24T11:54:18.763Z,6.32
2023-05-24T11:56:45.463Z,9.07
2023-05-24T11:59:12.955Z,6.80
2023-05-24T12:01:39.567Z,6.10
2023-05-24T12:04:07.450Z,5.32
2023-05-24T12:09:00.616Z,6.40
2023-05-24T12:11:28.535Z,3.65
2023-05-24T12:13:55.192Z,10.73
2023-05-24T12:16:22.412Z,8.07
2023-05-24T12:19:02.345Z,5.40
2023-05-24T12:21:33.289Z,6.68
2023-05-24T12:24:09.927Z,6.80
2023-05-24T12:26:37.267Z,4.68
2023-05-24T12:29:03.885Z,11.02
2023-05-24T12:31:30.411Z,5.40
2023-05-24T12:33:57.510Z,8.02
2023-05-24T12:36:24.089Z,4.30
2023-05-24T12:38:50.868Z,6.45
2023-05-24T12:41:17.343Z,5.80
2023-05-24T12:43:44.609Z,9.15
2023-05-24T12:46:11.518Z,4.75
2023-05-24T12:48:38.047Z,5.32
2023-05-24T12:51:04.685Z,5.18
2023-05-24T12:53:31.233Z,7.13
2023-05-24T12:55:57.906Z,6.57
2023-05-24T12:58:24.638Z,7.75
2023-05-24T13:00:52.084Z,9.30
2023-05-24T13:03:18.694Z,3.95
2023-05-24T13:05:46.192Z,3.40
2023-05-24T13:08:13.683Z,4.75
2023-05-24T13:10:40.881Z,8.52
2023-05-24T13:13:07.865Z,5.45
2023-05-24T13:15:34.509Z,11.57
2023-05-24T13:18:01.026Z,7.03
2023-05-24T13:20:27.706Z,7.93
2023-05-24T13:22:56.923Z,14.68
2023-05-24T13:25:23.581Z,6.32
2023-05-24T13:27:50.289Z,7.47
2023-05-24T13:30:17.375Z,10.32
2023-05-24T13:32:44.177Z,10.13
2023-05-24T13:35:11.428Z,6.65
2023-05-24T13:37:38.093Z,5.40
2023-05-24T13:40:05.138Z,9.40
2023-05-24T13:42:31.859Z,5.28
2023-05-24T13:44:59.301Z,8.88
2023-05-24T13:47:38.758Z,6.43
2023-05-24T13:50:06.661Z,6.07
2023-05-24T13:52:33.324Z,6.20
2023-05-24T13:54:59.901Z,11.63
2023-05-24T13:57:33.681Z,10.50
2023-05-24T14:00:10.273Z,6.80
2023-05-24T14:02:37.748Z,39.55
2023-05-24T14:05:24.967Z,18.55
2023-05-24T14:07:52.768Z,15.93
2023-05-24T14:10:21.184Z,10.45
2023-05-24T14:12:59.668Z,7.55
2023-05-24T14:15:30.578Z,15.10
2023-05-24T14:17:57.911Z,12.52
2023-05-24T14:20:24.645Z,8.15
2023-05-24T14:22:52.081Z,10.53
2023-05-24T14:25:18.607Z,10.63
2023-05-24T14:27:45.680Z,9.38
2023-05-24T14:30:12.361Z,14.77
2023-05-24T14:32:38.919Z,15.80
2023-05-24T14:35:06.956Z,22.30
2023-05-24T14:37:33.473Z,12.05
2023-05-24T14:40:00.130Z,19.55
2023-05-24T14:42:26.854Z,21.48
2023-05-24T14:44:54.433Z,19.92
2023-05-24T14:47:21.392Z,8.98
2023-05-24T14:49:47.907Z,9.32
2023-05-24T14:52:14.568Z,12.40
2023-05-24T14:54:41.138Z,12.77
2023-05-24T14:57:10.753Z,11.40
2023-05-24T14:59:37.436Z,8.75
2023-05-24T15:02:04.041Z,16.45
2023-05-24T15:04:30.584Z,5.68
2023-05-24T15:06:57.040Z,11.05
2023-05-24T15:09:23.731Z,10.18
2023-05-24T15:11:50.497Z,8.68
2023-05-24T15:14:17.034Z,13.18
2023-05-24T15:16:43.599Z,8.70
2023-05-24T15:19:10.248Z,12.80
2023-05-24T15:21:39.631Z,11.57
2023-05-24T15:24:06.404Z,6.35
2023-05-24T15:26:32.943Z,6.47
2023-05-24T15:29:02.512Z,8.00
2023-05-24T15:31:29.130Z,13.15
2023-05-24T15:33:55.686Z,6.85
2023-05-24T15:36:22.287Z,8.80
2023-05-24T15:38:48.806Z,16.33
2023-05-24T15:41:15.546Z,9.77
2023-05-24T15:43:42.030Z,14.25
2023-05-24T15:46:08.587Z,8.55
2023-05-24T15:48:35.112Z,9.00
2023-05-24T15:51:42.874Z,12.52
2023-05-24T15:53:51.201Z,8.57
2023-05-24T15:56:17.669Z,12.57
2023-05-24T15:58:45.715Z,9.93
2023-05-24T16:01:12.251Z,18.42
2023-05-24T16:03:38.940Z,12.35
2023-05-24T16:06:06.058Z,8.90
2023-05-24T16:08:32.636Z,12.52
2023-05-24T16:10:59.184Z,8.57
2023-05-24T16:13:25.868Z,12.90
2023-05-24T16:15:52.521Z,12.27
2023-05-24T16:18:21.545Z,9.00
2023-05-24T16:20:51.363Z,13.40
2023-05-24T16:23:18.577Z,8.95
2023-05-24T16:25:46.219Z,7.53
2023-05-24T16:28:12.746Z,7.38
2023-05-24T16:30:39.321Z,12.50
2023-05-24T16:33:07.362Z,8.52
2023-05-24T16:35:34.191Z,10.45
2023-05-24T16:38:00.755Z,12.27
2023-05-24T16:40:28.521Z,10.32
2023-05-24T16:42:55.272Z,10.60
2023-05-24T16:45:21.836Z,6.75
2023-05-24T16:47:48.371Z,9.95
2023-05-24T16:50:15.537Z,12.13
2023-05-24T16:52:42.632Z,7.82
2023-05-24T16:55:09.590Z,13.60
2023-05-24T16:57:36.467Z,47.67
2023-05-24T17:00:04.170Z,24.42
2023-05-24T17:02:30.721Z,15.38
2023-05-24T17:04:57.330Z,13.68
2023-05-24T17:07:23.979Z,11.93
2023-05-24T17:09:51.307Z,13.90
2023-05-24T17:12:18.130Z,13.60
2023-05-24T17:14:44.778Z,12.85
2023-05-24T17:17:11.981Z,13.57
2023-05-24T17:19:38.579Z,11.37
2023-05-24T17:22:06.117Z,11.80
2023-05-24T17:24:32.601Z,19.20
2023-05-24T17:26:59.273Z,14.63
2023-05-24T17:29:26.793Z,14.23
2023-05-24T17:31:53.353Z,20.98
2023-05-24T17:34:19.921Z,15.57
2023-05-24T17:36:46.395Z,19.20
2023-05-24T17:39:12.956Z,17.02
2023-05-24T17:41:39.550Z,20.42
2023-05-24T17:44:06.062Z,21.13
2023-05-24T17:46:34.959Z,16.30
2023-05-24T17:49:02.915Z,12.38
2023-05-24T17:51:29.447Z,14.98
2023-05-24T17:53:56.138Z,14.60
2023-05-24T17:56:23.428Z,12.70
2023-05-24T17:58:50.622Z,16.27
2023-05-24T18:01:17.539Z,18.27
2023-05-24T18:03:44.133Z,19.70
2023-05-24T18:06:10.762Z,10.93
2023-05-24T18:08:43.209Z,9.60
2023-05-24T18:11:11.467Z,10.77
2023-05-24T18:13:39.071Z,13.52
2023-05-24T18:16:06.183Z,12.82
2023-05-24T18:18:33.186Z,13.55
2023-05-24T18:20:59.825Z,11.23
2023-05-24T18:23:26.376Z,13.98
2023-05-24T18:26:01.986Z,14.27
2023-05-24T18:28:29.602Z,10.82
2023-05-24T18:30:56.436Z,12.15
2023-05-24T18:33:23.104Z,10.60
2023-05-24T18:35:49.731Z,14.07
2023-05-24T18:38:16.408Z,9.77
2023-05-24T18:40:42.904Z,12.05
2023-05-24T18:43:09.440Z,16.20
2023-05-24T18:45:36.006Z,14.68
2023-05-24T18:48:02.560Z,28.77
2023-05-24T18:50:29.194Z,36.85
2023-05-24T18:52:55.977Z,19.15
2023-05-24T18:55:22.475Z,18.73
2023-05-24T18:57:49.320Z,13.65
2023-05-24T19:00:19.396Z,19.35
2023-05-24T19:02:46.204Z,13.50
2023-05-24T19:05:12.994Z,9.48
2023-05-24T19:07:39.514Z,14.13
2023-05-24T19:10:06.345Z,13.85
2023-05-24T19:12:32.930Z,13.25
2023-05-24T19:14:59.665Z,16.92
2023-05-24T19:17:26.251Z,17.20
2023-05-24T19:19:53.002Z,15.82
2023-05-24T19:22:19.851Z,14.85
2023-05-24T19:24:46.511Z,22.38
2023-05-24T19:27:15.065Z,14.40
2023-05-24T19:29:41.573Z,22.65
2023-05-24T19:32:08.378Z,22.35
2023-05-24T19:34:35.542Z,12.88
2023-05-24T19:37:02.098Z,19.45
2023-05-24T19:39:28.790Z,21.20
2023-05-24T19:41:55.390Z,14.57
2023-05-24T19:44:21.947Z,20.60
2023-05-24T19:46:48.634Z,17.05
2023-05-24T19:49:15.224Z,12.02
2023-05-24T19:51:41.705Z,13.63
2023-05-24T19:54:09.970Z,22.10
2023-05-24T19:56:36.495Z,21.27
2023-05-24T19:59:03.123Z,14.90
2023-05-24T20:01:30.246Z,14.43
2023-05-24T20:03:59.224Z,20.05
2023-05-24T20:06:26.520Z,17.52
2023-05-24T20:08:53.056Z,10.40
2023-05-24T20:11:19.540Z,17.75
2023-05-24T20:13:46.107Z,14.68
2023-05-24T20:16:13.319Z,14.07
2023-05-24T20:18:40.524Z,11.60
2023-05-24T20:21:07.044Z,12.90
2023-05-24T20:23:33.621Z,9.98
2023-05-24T20:26:00.900Z,10.82
2023-05-24T20:28:31.459Z,17.80
2023-05-24T20:30:58.505Z,14.38
2023-05-24T20:33:25.194Z,14.93
2023-05-24T20:35:53.158Z,12.13
2023-05-24T20:38:19.862Z,9.32
2023-05-24T20:40:46.558Z,17.52
2023-05-24T20:43:13.100Z,16.02
2023-05-24T20:45:39.736Z,12.63
2023-05-24T20:48:06.454Z,12.85
2023-05-24T20:50:34.507Z,15.48
2023-05-24T20:53:01.041Z,6.10
2023-05-24T20:55:27.584Z,19.48
2023-05-24T20:57:54.163Z,15.38
2023-05-24T21:00:20.844Z,14.65
2023-05-24T21:02:47.527Z,17.45
2023-05-24T21:05:14.149Z,12.32
2023-05-24T21:07:40.876Z,11.13
2023-05-24T21:10:07.870Z,11.70
2023-05-24T21:12:34.465Z,14.05
2023-05-24T21:15:01.095Z,12.75
2023-05-24T21:17:27.709Z,10.35
2023-05-24T21:19:54.356Z,8.13
2023-05-24T21:22:20.986Z,14.65
2023-05-24T21:24:47.532Z,12.32
2023-05-24T21:27:14.112Z,17.00
2023-05-24T21:29:41.934Z,27.23
2023-05-24T21:32:08.552Z,12.43
2023-05-24T21:34:36.630Z,11.27
2023-05-24T21:39:30.134Z,9.70
2023-05-24T21:41:56.684Z,13.13
2023-05-24T21:44:23.296Z,12.23
2023-05-24T21:46:49.807Z,12.73
2023-05-24T21:49:17.501Z,12.48
2023-05-24T21:51:44.031Z,12.73
2023-05-24T21:54:10.541Z,16.35
2023-05-24T21:56:37.397Z,11.35
2023-05-24T21:59:03.974Z,19.60
2023-05-24T22:01:30.610Z,10.90
2023-05-24T22:03:57.470Z,9.27
2023-05-24T22:06:24.122Z,16.70
2023-05-24T22:08:50.779Z,18.15
2023-05-24T22:11:17.870Z,11.70
2023-05-24T22:13:44.374Z,10.57
2023-05-24T22:16:10.943Z,13.80
2023-05-24T22:18:37.556Z,20.25
2023-05-24T22:21:04.101Z,13.38
2023-05-24T22:23:31.175Z,17.42
2023-05-24T22:25:57.690Z,13.75
2023-05-24T22:28:24.963Z,13.07
2023-05-24T22:30:52.356Z,13.30
2023-05-24T22:33:18.863Z,13.27
2023-05-24T22:35:45.681Z,14.43
2023-05-24T22:38:12.503Z,13.45
2023-05-24T22:40:41.804Z,15.68
2023-05-24T22:43:08.280Z,11.65
2023-05-24T22:45:34.725Z,15.00
2023-05-24T22:48:03.430Z,11.77
2023-05-24T22:50:30.127Z,10.90
2023-05-24T22:52:56.832Z,15.98
2023-05-24T22:55:23.989Z,16.65
2023-05-24T22:57:50.523Z,17.83
2023-05-24T23:00:18.267Z,17.50
2023-05-24T23:02:46.960Z,17.60
2023-05-24T23:05:13.739Z,8.43
2023-05-24T23:07:40.332Z,9.68
2023-05-24T23:10:08.074Z,13.73
2023-05-24T23:12:35.903Z,13.15
2023-05-24T23:15:02.761Z,20.67
2023-05-24T23:17:29.407Z,10.35
2023-05-24T23:19:56.129Z,13.40
2023-05-24T23:22:24.031Z,12.90
2023-05-24T23:24:50.715Z,8.48
2023-05-24T23:27:17.383Z,10.05
2023-05-24T23:29:43.986Z,21.92
2023-05-24T23:32:10.715Z,18.98
2023-05-24T23:34:37.533Z,13.57
2023-05-24T23:37:04.545Z,16.65
2023-05-24T23:39:31.071Z,14.63
2023-05-24T23:41:57.638Z,17.05
2023-05-24T23:44:24.167Z,11.98
2023-05-24T23:46:51.018Z,19.70
2023-05-24T23:49:17.740Z,9.82
2023-05-24T23:51:44.299Z,16.25
2023-05-24T23:54:11.369Z,9.60
2023-05-24T23:56:40.710Z,16.45
2023-05-24T23:59:07.664Z,14.75
